Time;durP1;ratioP1;P1;durP2;ratioP2;P2;SDS_P1;SDS_P2;PMS_P1;PMS_P2;Temp;Humidity;BMP_temperature;BMP_pressure;BME280_temperature;BME280_humidity;BME280_pressure;Samples;Min_cycle;Max_cycle;Signal;HPM_P1;HPM_P2
2022/08/19 00:01:58;;;;;;;10.60;7.13;;;;;;;26.76;51.39;99652.28;5093663;28;20568;-73
2022/08/19 00:04:29;;;;;;;11.13;7.75;;;;;;;26.70;52.06;99644.06;5093474;28;20457;-73
2022/08/19 00:06:58;;;;;;;10.45;7.43;;;;;;;26.87;51.07;99645.31;5093778;28;20111;-71
2022/08/19 00:09:28;;;;;;;12.65;7.75;;;;;;;26.77;51.97;99648.50;5093428;28;20040;-71
2022/08/19 00:11:57;;;;;;;11.73;8.20;;;;;;;26.56;52.91;99647.88;5093374;28;20048;-73
2022/08/19 00:14:27;;;;;;;9.88;7.57;;;;;;;26.53;52.67;99646.38;5093281;28;20040;-74
2022/08/19 00:16:57;;;;;;;10.30;7.90;;;;;;;26.48;54.02;99646.19;5093430;28;20070;-74
2022/08/19 00:19:25;;;;;;;8.63;7.72;;;;;;;26.60;53.02;99649.97;5093094;28;20079;-75
2022/08/19 00:21:53;;;;;;;11.68;7.80;;;;;;;26.41;53.77;99650.81;5093317;28;20058;-74
2022/08/19 00:24:21;;;;;;;10.85;8.25;;;;;;;26.41;53.85;99656.28;5093147;28;20052;-73
2022/08/19 00:26:50;;;;;;;11.88;8.45;;;;;;;26.37;53.86;99649.50;5093261;28;20052;-74
2022/08/19 00:29:24;;;;;;;11.77;7.88;;;;;;;26.26;54.55;99650.97;5093018;28;20059;-73
2022/08/19 00:31:56;;;;;;;12.13;7.97;;;;;;;26.20;55.17;99649.91;5093382;28;20044;-73
2022/08/19 00:34:27;;;;;;;12.05;8.77;;;;;;;26.06;55.44;99652.84;5092960;28;20051;-73
2022/08/19 00:36:55;;;;;;;9.68;8.10;;;;;;;25.97;55.50;99649.47;5092998;28;20400;-72
2022/08/19 00:39:24;;;;;;;11.50;8.40;;;;;;;26.07;55.01;99654.53;5092958;28;20048;-72
2022/08/19 00:41:52;;;;;;;11.15;8.23;;;;;;;25.93;55.76;99659.94;5092719;28;20408;-71
2022/08/19 00:44:23;;;;;;;13.68;8.95;;;;;;;25.91;56.15;99653.84;5093004;28;20068;-71
2022/08/19 00:46:56;;;;;;;11.98;8.27;;;;;;;26.08;55.37;99651.56;5093117;28;20040;-72
2022/08/19 00:49:32;;;;;;;16.42;8.15;;;;;;;26.00;55.95;99653.66;5074665;28;20413;-75
2022/08/19 00:52:05;;;;;;;9.80;7.95;;;;;;;25.91;56.14;99647.53;5074564;28;20474;-70
2022/08/19 00:54:34;;;;;;;12.35;8.50;;;;;;;25.88;56.50;99646.06;5074117;28;20412;-69
2022/08/19 00:57:05;;;;;;;11.65;8.45;;;;;;;25.84;56.51;99641.19;5074588;28;20044;-70
2022/08/19 00:59:36;;;;;;;10.77;8.30;;;;;;;25.88;56.11;99645.22;5092432;28;20404;-70
2022/08/19 01:02:25;;;;;;;10.00;8.15;;;;;;;26.03;55.44;99637.69;5092533;28;20504;-70
2022/08/19 01:04:56;;;;;;;12.60;8.45;;;;;;;26.12;55.06;99633.69;5092467;28;20054;-70
2022/08/19 01:07:24;;;;;;;13.68;8.60;;;;;;;26.02;55.20;99633.25;5092784;28;20092;-70
2022/08/19 01:09:53;;;;;;;12.45;8.65;;;;;;;25.89;56.38;99638.72;5093134;28;20046;-70
2022/08/19 01:12:21;;;;;;;11.10;7.85;;;;;;;25.91;55.87;99639.34;5093094;28;20067;-69
2022/08/19 01:14:51;;;;;;;12.38;8.95;;;;;;;25.77;56.94;99645.78;5092482;28;20048;-70
2022/08/19 01:17:20;;;;;;;14.27;8.45;;;;;;;25.63;57.59;99642.16;5092389;28;20036;-71
2022/08/19 01:19:50;;;;;;;12.13;8.18;;;;;;;25.59;57.85;99647.19;5092421;28;20040;-69
2022/08/19 01:22:27;;;;;;;11.07;7.97;;;;;;;25.86;56.86;99648.13;5092703;28;20040;-69
2022/08/19 01:25:01;;;;;;;14.70;9.47;;;;;;;25.62;57.86;99643.22;5092513;28;20048;-69
2022/08/19 01:27:39;;;;;;;12.63;9.07;;;;;;;25.45;58.27;99637.25;5092208;28;20107;-69
2022/08/19 01:30:14;;;;;;;13.40;9.00;;;;;;;25.43;58.54;99635.78;5074313;28;20052;-69
2022/08/19 01:32:43;;;;;;;13.02;9.13;;;;;;;25.39;59.03;99640.81;5092272;28;20048;-70
2022/08/19 01:35:13;;;;;;;12.18;8.70;;;;;;;25.45;58.69;99631.78;5092305;28;20496;-70
2022/08/19 01:37:49;;;;;;;10.70;9.20;;;;;;;25.21;60.05;99637.78;5092059;28;20070;-70
2022/08/19 01:40:19;;;;;;;10.98;8.48;;;;;;;25.33;59.52;99638.88;5092264;28;20113;-70
2022/08/19 01:42:47;;;;;;;12.73;8.57;;;;;;;25.30;59.74;99631.09;5091877;28;20043;-70
2022/08/19 01:45:15;;;;;;;11.60;8.88;;;;;;;25.25;60.05;99633.59;5092327;28;20040;-70
2022/08/19 01:47:44;;;;;;;13.68;8.52;;;;;;;25.21;60.27;99621.41;5093824;28;20451;-72
2022/08/19 01:50:30;;;;;;;12.25;9.15;;;;;;;25.21;60.52;99618.66;5096100;28;20044;-75
2022/08/19 01:53:00;;;;;;;13.25;9.20;;;;;;;25.14;60.88;99625.97;5096283;28;20132;-78
2022/08/19 01:55:36;;;;;;;12.50;8.82;;;;;;;25.05;60.98;99623.41;5096311;28;20373;-75
2022/08/19 01:58:11;;;;;;;14.15;9.10;;;;;;;25.10;61.24;99614.63;5096427;28;20105;-73
2022/08/19 02:00:40;;;;;;;12.45;8.73;;;;;;;25.10;61.30;99609.16;5095855;28;20060;-74
2022/08/19 02:03:09;;;;;;;14.10;9.02;;;;;;;25.01;61.52;99597.53;5096011;28;20062;-74
2022/08/19 02:05:37;;;;;;;11.75;9.40;;;;;;;24.98;61.85;99597.09;5095687;28;20048;-74
2022/08/19 02:08:07;;;;;;;13.40;8.85;;;;;;;25.01;61.87;99599.44;5096139;28;20094;-73
2022/08/19 02:10:40;;;;;;;11.77;9.02;;;;;;;25.03;62.00;99608.28;5096432;28;20043;-73
2022/08/19 02:13:08;;;;;;;11.38;8.93;;;;;;;24.98;61.91;99599.81;5095926;28;20105;-73
2022/08/19 02:15:37;;;;;;;13.23;9.05;;;;;;;24.93;61.84;99592.25;5095811;28;20046;-73
2022/08/19 02:18:07;;;;;;;12.13;8.80;;;;;;;24.87;62.12;99581.28;5095851;28;20040;-73
2022/08/19 02:20:35;;;;;;;11.88;9.18;;;;;;;24.91;62.16;99579.84;5095644;28;20042;-74
2022/08/19 02:23:03;;;;;;;13.32;9.05;;;;;;;24.84;62.77;99588.00;5095874;28;20153;-74
2022/08/19 02:25:33;;;;;;;11.35;8.85;;;;;;;24.80;62.69;99589.41;5095231;28;20079;-77
2022/08/19 02:28:01;;;;;;;11.90;9.15;;;;;;;24.64;63.31;99593.31;5095746;28;20048;-74
2022/08/19 02:30:29;;;;;;;11.23;9.35;;;;;;;24.79;62.68;99579.56;5095402;28;20044;-74
2022/08/19 02:32:58;;;;;;;11.32;8.85;;;;;;;24.84;62.61;99566.16;5095842;28;20040;-74
2022/08/19 02:35:26;;;;;;;11.45;9.65;;;;;;;24.70;63.31;99578.88;5095381;28;20044;-74
2022/08/19 02:40:42;;;;;;;13.05;9.35;;;;;;;24.42;66.29;99600.72;5095100;28;20065;-74
2022/08/19 02:43:10;;;;;;;13.88;9.75;;;;;;;24.38;67.51;99595.84;5095412;28;20048;-74
2022/08/19 02:45:40;;;;;;;11.10;9.18;;;;;;;24.43;66.14;99596.94;5094884;28;20083;-74
2022/08/19 02:48:09;;;;;;;13.82;9.30;;;;;;;24.58;65.59;99602.28;5095518;28;20048;-74
2022/08/19 02:50:54;;;;;;;13.82;10.10;;;;;;;24.63;66.03;99607.16;5094845;28;20446;-75
2022/08/19 02:53:24;;;;;;;13.43;9.10;;;;;;;24.45;66.63;99603.03;5094912;28;20048;-74
2022/08/19 02:55:54;;;;;;;13.45;9.07;;;;;;;24.59;66.12;99611.31;5094721;28;20552;-73
2022/08/19 02:58:23;;;;;;;13.65;9.27;;;;;;;24.39;67.25;99622.88;5094366;28;20038;-74
2022/08/19 03:00:55;;;;;;;13.32;8.85;;;;;;;24.33;67.36;99614.69;5094841;28;20105;-74
2022/08/19 03:03:23;;;;;;;12.85;8.95;;;;;;;24.33;67.64;99622.84;5094812;28;20040;-73
2022/08/19 03:05:51;;;;;;;12.95;9.07;;;;;;;24.22;68.46;99624.16;5094730;28;20044;-74
2022/08/19 03:08:25;;;;;;;12.10;9.32;;;;;;;24.40;67.49;99627.28;5094904;28;20440;-73
2022/08/19 03:10:54;;;;;;;11.98;9.88;;;;;;;24.37;67.55;99624.97;5094316;28;20044;-73
2022/08/19 03:13:23;;;;;;;10.73;9.38;;;;;;;24.39;67.82;99624.78;5076269;28;20051;-73
2022/08/19 03:15:52;;;;;;;13.75;9.25;;;;;;;24.31;68.09;99631.19;5094096;28;20485;-74
2022/08/19 03:18:20;;;;;;;13.30;9.75;;;;;;;24.21;68.74;99628.78;5076221;28;20513;-72
2022/08/19 03:20:54;;;;;;;12.05;9.30;;;;;;;24.13;69.27;99634.38;5094424;28;20125;-73
2022/08/19 03:23:22;;;;;;;12.70;9.80;;;;;;;24.07;69.86;99634.31;5094549;28;20405;-73
2022/08/19 03:25:55;;;;;;;12.27;9.85;;;;;;;23.94;70.36;99644.03;5094196;28;20056;-73
2022/08/19 03:28:33;;;;;;;13.70;10.25;;;;;;;23.99;70.38;99644.28;5076196;28;20052;-73
2022/08/19 03:31:05;;;;;;;18.27;10.02;;;;;;;23.87;70.85;99639.53;5075806;28;20577;-75
2022/08/19 03:33:53;;;;;;;14.35;10.20;;;;;;;23.71;71.54;99627.00;5094027;28;20066;-73
2022/08/19 03:36:24;;;;;;;14.68;10.00;;;;;;;23.77;71.77;99645.31;5075958;28;20048;-75
2022/08/19 03:38:56;;;;;;;12.15;9.63;;;;;;;23.77;71.95;99642.56;5093772;28;20043;-74
2022/08/19 03:41:30;;;;;;;13.52;9.98;;;;;;;23.64;72.81;99650.56;5076114;28;20076;-75
2022/08/19 03:44:13;;;;;;;16.85;10.35;;;;;;;23.72;72.44;99645.00;5094080;28;20047;-73
2022/08/19 03:46:46;;;;;;;;;;;;;;;23.83;71.85;99649.13;5075966;28;20055;-73
2022/08/19 03:49:14;;;;;;;13.90;9.65;;;;;;;23.64;72.88;99645.13;5093920;28;19920;-74
2022/08/19 03:51:43;;;;;;;14.43;10.07;;;;;;;23.61;73.26;99653.69;5093419;28;20397;-74
2022/08/19 03:54:13;;;;;;;14.80;10.13;;;;;;;23.62;73.37;99655.38;5093935;28;20043;-74
2022/08/19 03:56:45;;;;;;;13.30;9.95;;;;;;;23.57;73.47;99650.47;5093377;28;20043;-75
2022/08/19 03:59:16;;;;;;;13.38;10.02;;;;;;;23.58;73.40;99645.88;5093783;28;20040;-73
2022/08/19 04:01:45;;;;;;;12.93;10.00;;;;;;;23.67;72.61;99631.16;5093438;28;20075;-75
2022/08/19 04:04:13;;;;;;;14.55;10.30;;;;;;;23.72;73.13;99655.91;5093683;28;20066;-74
2022/08/19 04:06:44;;;;;;;14.70;10.13;;;;;;;23.87;71.77;99650.44;5093609;28;20039;-73
2022/08/19 04:09:12;;;;;;;12.93;9.50;;;;;;;23.96;71.27;99655.56;5093312;28;20399;-73
2022/08/19 04:11:44;;;;;;;13.93;9.75;;;;;;;23.96;71.10;99655.56;5092718;28;20055;-73
2022/08/19 04:14:15;;;;;;;14.63;9.57;;;;;;;24.11;70.11;99665.56;5093710;28;20044;-74
2022/08/19 04:16:44;;;;;;;14.00;9.73;;;;;;;24.17;70.64;99672.97;5093298;28;20043;-75
2022/08/19 04:19:13;;;;;;;17.27;10.35;;;;;;;24.14;70.94;99676.94;5093635;28;20059;-72
2022/08/19 04:21:44;;;;;;;15.40;9.43;;;;;;;24.17;70.80;99681.13;5093081;28;20036;-73
2022/08/19 04:24:13;;;;;;;17.98;12.25;;;;;;;24.36;69.21;99677.78;5093514;28;20044;-78
2022/08/19 04:26:43;;;;;;;15.63;10.65;;;;;;;24.46;68.06;99681.03;5093360;28;20059;-75
2022/08/19 04:29:14;;;;;;;12.70;9.52;;;;;;;24.44;68.19;99685.84;5093397;28;20040;-78
2022/08/19 04:31:44;;;;;;;13.30;9.25;;;;;;;24.57;67.17;99684.28;5102841;28;20040;-76
2022/08/19 04:34:15;;;;;;;14.13;9.32;;;;;;;24.79;66.23;99672.28;5113882;28;20104;-74
2022/08/19 04:36:45;;;;;;;13.15;9.18;;;;;;;24.80;65.99;99674.84;5113134;28;20043;-74
2022/08/19 04:39:16;;;;;;;14.40;9.38;;;;;;;24.91;65.66;99676.16;5094944;28;20050;-74
2022/08/19 04:44:33;;;;;;;15.32;9.93;;;;;;;25.19;64.49;99688.97;5113519;28;20082;-74
2022/08/19 04:47:05;;;;;;;14.55;9.52;;;;;;;25.20;63.92;99690.66;5113732;28;20043;-74
2022/08/19 04:49:39;;;;;;;15.05;9.10;;;;;;;25.11;64.55;99693.56;5095109;28;20059;-74
2022/08/19 04:52:08;;;;;;;12.77;9.35;;;;;;;25.21;63.55;99695.09;5112827;28;20039;-75
2022/08/19 04:54:36;;;;;;;12.02;9.02;;;;;;;25.37;62.54;99687.38;5113103;28;20070;-72
2022/08/19 04:57:09;;;;;;;11.95;9.27;;;;;;;25.52;61.85;99687.28;5113079;28;20046;-73
2022/08/19 04:59:39;;;;;;;18.52;9.82;;;;;;;25.42;62.54;99681.34;5113194;28;20044;-75
2022/08/19 05:02:09;;;;;;;15.13;9.70;;;;;;;25.67;61.44;99690.72;5094556;28;20097;-75
2022/08/19 05:04:39;;;;;;;15.98;9.30;;;;;;;25.79;61.40;99690.16;5112757;28;20432;-75
2022/08/19 05:07:09;;;;;;;12.07;8.93;;;;;;;25.80;61.25;99691.84;5094921;28;20048;-74
2022/08/19 05:09:37;;;;;;;13.70;8.75;;;;;;;25.98;60.50;99694.84;5094672;28;20574;-78
2022/08/19 05:12:28;;;;;;;15.15;9.63;;;;;;;25.88;60.38;99688.94;5092456;28;20481;-75
2022/08/19 05:14:57;;;;;;;14.77;9.50;;;;;;;25.65;61.08;99698.25;5112001;28;20047;-75
2022/08/19 05:17:26;;;;;;;12.65;8.77;;;;;;;25.87;60.27;99692.72;5112805;28;20484;-75
2022/08/19 05:22:44;;;;;;;15.07;9.30;;;;;;;26.18;58.89;99675.78;5112319;28;20050;-77
2022/08/19 05:25:18;;;;;;;25.33;10.57;;;;;;;26.08;59.42;99684.38;5110175;28;20040;-74
2022/08/19 05:27:48;;;;;;;36.95;10.85;;;;;;;26.32;59.04;99684.81;5092151;28;20040;-75
2022/08/19 05:30:17;;;;;;;13.13;9.00;;;;;;;26.39;57.86;99686.56;5092552;28;20040;-77
2022/08/19 05:32:45;;;;;;;12.07;8.20;;;;;;;26.16;59.02;99691.53;5073791;28;20080;-74
2022/08/19 05:35:13;;;;;;;15.77;9.43;;;;;;;26.53;56.63;99681.94;5092454;28;20473;-74
2022/08/19 05:37:42;;;;;;;13.35;9.00;;;;;;;26.79;56.41;99673.72;5092148;28;20051;-73
2022/08/19 05:40:11;;;;;;;13.50;8.90;;;;;;;26.98;55.42;99679.41;5092065;28;20401;-74
2022/08/19 05:42:39;;;;;;;15.57;9.05;;;;;;;27.35;54.79;99684.22;5074097;28;20063;-75
2022/08/19 05:45:11;;;;;;;10.60;8.10;;;;;;;27.78;52.12;99680.91;5100712;28;20105;-76
2022/08/19 05:47:40;;;;;;;;;;;;;;;28.00;52.24;99688.84;5092534;28;20449;-76
2022/08/19 05:50:09;;;;;;;14.48;8.57;;;;;;;28.58;49.46;99685.97;5091919;28;20436;-74
2022/08/19 05:52:38;;;;;;;14.82;7.95;;;;;;;28.80;48.64;99692.75;5092034;28;20040;-74
2022/08/19 05:55:13;;;;;;;13.98;7.97;;;;;;;29.02;47.71;99687.72;5091881;28;20389;-74
2022/08/19 05:57:41;;;;;;;12.80;7.75;;;;;;;29.38;47.22;99691.59;5091932;28;20060;-74
2022/08/19 06:00:12;;;;;;;11.52;7.50;;;;;;;29.72;45.56;99687.38;5091850;28;20044;-73
2022/08/19 06:02:41;;;;;;;11.98;7.40;;;;;;;29.98;45.17;99683.47;5091826;28;20039;-74
2022/08/19 06:05:11;;;;;;;12.63;7.78;;;;;;;30.01;44.95;99686.59;5091860;28;20042;-75
2022/08/19 06:07:40;;;;;;;10.23;7.50;;;;;;;29.84;45.20;99688.31;5091807;28;20047;-73
2022/08/19 06:10:11;;;;;;;10.25;7.60;;;;;;;30.20;45.07;99691.00;5073224;28;20500;-75
2022/08/19 06:12:39;;;;;;;12.27;7.05;;;;;;;30.36;43.59;99696.91;5091826;28;20048;-75
2022/08/19 06:15:11;;;;;;;14.23;7.55;;;;;;;29.89;44.21;99691.19;5091642;28;20168;-73
2022/08/19 06:17:41;;;;;;;9.50;6.70;;;;;;;29.74;43.76;99690.78;5101311;28;20062;-74
2022/08/19 06:20:13;;;;;;;9.85;7.30;;;;;;;30.61;42.77;99686.59;5111622;28;20047;-75
2022/08/19 06:22:42;;;;;;;10.07;6.72;;;;;;;30.52;42.43;99676.16;5093539;28;20056;-72
2022/08/19 06:25:11;;;;;;;11.57;6.60;;;;;;;31.05;40.76;99681.63;5111722;28;20063;-73
2022/08/19 06:27:39;;;;;;;10.80;6.82;;;;;;;31.00;41.70;99678.75;5103638;28;20134;-76
2022/08/19 06:30:29;;;;;;;8.48;6.15;;;;;;;31.32;40.34;99682.84;5092369;28;20062;-78
2022/08/19 06:32:57;;;;;;;10.85;6.20;;;;;;;31.38;40.70;99677.44;5073584;28;20052;-77
2022/08/19 06:35:26;;;;;;;11.77;6.25;;;;;;;31.47;40.41;99673.25;5095297;28;20453;-74
2022/08/19 06:37:54;;;;;;;9.02;6.30;;;;;;;31.66;39.40;99666.47;5077013;28;20137;-75
2022/08/19 06:40:22;;;;;;;9.38;7.07;;;;;;;31.90;39.00;99659.81;5077008;28;20070;-73
2022/08/19 06:42:50;;;;;;;9.68;6.53;;;;;;;30.89;40.54;99660.31;5095533;28;20408;-79
2022/08/19 06:45:22;;;;;;;8.57;6.28;;;;;;;30.57;41.68;99662.50;5095122;28;20481;-77
2022/08/19 06:48:02;;;;;;;11.90;6.00;;;;;;;30.37;41.84;99673.84;5095051;28;20528;-75
2022/08/19 06:50:33;;;;;;;12.70;6.25;;;;;;;30.35;41.83;99674.06;5094748;28;20123;-77
2022/08/19 06:53:07;;;;;;;10.88;6.72;;;;;;;31.17;40.89;99674.19;5094934;28;20036;-77
2022/08/19 06:55:35;;;;;;;8.30;6.60;;;;;;;31.74;38.96;99671.59;5076629;28;20048;-83
2022/08/19 06:58:03;;;;;;;10.05;6.07;;;;;;;31.59;39.58;99676.81;5094813;28;20109;-76
2022/08/19 07:00:32;;;;;;;8.65;6.10;;;;;;;31.95;38.83;99669.31;5076533;28;20047;-76
2022/08/19 07:03:02;;;;;;;8.13;6.13;;;;;;;31.75;38.94;99665.06;5094714;28;20072;-77
2022/08/19 07:05:41;;;;;;;9.68;6.10;;;;;;;31.66;38.83;99666.47;5094696;28;20552;-77
2022/08/19 07:08:13;;;;;;;9.82;6.00;;;;;;;31.43;39.25;99661.84;5094493;28;20040;-76
2022/08/19 07:10:44;;;;;;;11.27;7.80;;;;;;;31.49;39.79;99663.66;5094519;28;20146;-74
2022/08/19 07:13:12;;;;;;;8.60;6.10;;;;;;;31.43;38.55;99677.53;5076053;28;20044;-74
2022/08/19 07:15:40;;;;;;;12.35;6.35;;;;;;;30.84;40.61;99684.97;5094643;28;20050;-77
2022/08/19 07:18:11;;;;;;;10.48;6.70;;;;;;;31.15;40.29;99687.34;5108621;28;20044;-71
2022/08/19 07:20:39;;;;;;;9.35;6.05;;;;;;;31.32;39.47;99693.84;5096323;28;20514;-74
2022/08/19 07:23:09;;;;;;;13.30;6.05;;;;;;;31.37;39.63;99701.41;5095772;28;20058;-75
2022/08/19 07:25:44;;;;;;;10.35;6.53;;;;;;;31.38;39.14;99702.25;5114389;28;20055;-75
2022/08/19 07:28:20;;;;;;;11.07;6.00;;;;;;;31.27;40.05;99702.03;5096085;28;20047;-74
2022/08/19 07:30:52;;;;;;;9.48;6.32;;;;;;;31.55;39.18;99708.66;5114568;28;20040;-74
2022/08/19 07:33:21;;;;;;;8.55;6.35;;;;;;;31.24;38.87;99693.38;5096168;28;20086;-74
2022/08/19 07:35:50;;;;;;;12.95;6.30;;;;;;;31.24;38.87;99693.38;5114633;28;20112;-81
2022/08/19 07:38:18;;;;;;;9.82;6.13;;;;;;;31.44;39.19;99690.25;5114275;28;20078;-74
2022/08/19 07:40:46;;;;;;;10.40;6.63;;;;;;;31.65;38.83;99697.03;5113790;28;20066;-73
2022/08/19 07:43:15;;;;;;;9.65;6.70;;;;;;;31.65;38.72;99694.28;5114062;28;20126;-73
2022/08/19 07:45:46;;;;;;;9.02;6.35;;;;;;;31.74;38.63;99690.88;5114018;28;20079;-73
2022/08/19 07:48:15;;;;;;;11.07;5.95;;;;;;;31.84;38.40;99688.38;5091039;28;20059;-72
2022/08/19 07:50:45;;;;;;;9.20;6.30;;;;;;;31.59;38.51;99687.81;5075275;28;20048;-75
2022/08/19 07:53:13;;;;;;;11.40;6.47;;;;;;;31.46;38.35;99688.06;5074731;28;20044;-75
2022/08/19 07:55:42;;;;;;;7.85;6.28;;;;;;;31.24;38.87;99683.19;5093417;28;20441;-74
2022/08/19 07:58:14;;;;;;;10.75;6.22;;;;;;;31.24;38.99;99680.44;5102364;28;20467;-75
2022/08/19 08:00:44;;;;;;;11.70;6.47;;;;;;;31.26;39.03;99681.03;5091512;28;20511;-72
2022/08/19 08:03:12;;;;;;;11.30;6.60;;;;;;;31.33;39.24;99683.66;5074451;28;20048;-74
2022/08/19 08:11:17;;;;;;;8.63;6.10;;;;;;;31.66;38.28;99683.03;5093120;28;20105;-76
2022/08/19 08:13:49;;;;;;;9.07;6.00;;;;;;;31.81;37.49;99683.34;5093001;28;20036;-74
2022/08/19 08:16:34;;;;;;;8.80;6.35;;;;;;;32.01;37.57;99684.84;5093022;28;20054;-74
2022/08/19 08:19:07;;;;;;;9.27;6.25;;;;;;;32.02;37.40;99686.53;5092996;28;20412;-74
2022/08/19 08:21:53;;;;;;;13.48;5.60;;;;;;;31.91;36.96;99691.00;5077461;28;20602;-72
2022/08/19 08:24:23;;;;;;;9.70;5.68;;;;;;;32.06;37.00;99696.84;5113418;28;20040;-74
2022/08/19 08:26:56;;;;;;;8.15;5.53;;;;;;;32.01;36.68;99690.34;5114282;28;20047;-74
2022/08/19 08:29:25;;;;;;;9.27;6.20;;;;;;;32.10;36.94;99694.41;5095023;28;20120;-73
2022/08/19 08:32:03;;;;;;;9.30;6.03;;;;;;;32.21;36.63;99690.75;5094938;28;20050;-73
2022/08/19 08:34:41;;;;;;;8.98;6.05;;;;;;;31.97;36.60;99681.75;5113268;28;20059;-74
2022/08/19 08:37:09;;;;;;;8.27;5.90;;;;;;;32.25;36.31;99685.59;5112911;28;20050;-73
2022/08/19 08:39:39;;;;;;;9.05;6.20;;;;;;;32.25;36.25;99697.47;5113251;28;20047;-74
2022/08/19 08:42:13;;;;;;;9.38;5.63;;;;;;;32.34;35.92;99686.91;5094527;28;20048;-73
2022/08/19 08:44:54;;;;;;;8.38;6.13;;;;;;;32.34;36.29;99690.50;5112957;28;20051;-72
2022/08/19 08:47:32;;;;;;;10.00;6.20;;;;;;;32.51;35.79;99679.47;5094724;28;20424;-74
2022/08/19 08:50:05;;;;;;;9.30;5.75;;;;;;;32.68;35.30;99688.59;5113036;28;20172;-75
2022/08/19 08:52:36;;;;;;;8.80;6.07;;;;;;;32.73;35.90;99676.81;5112947;28;20044;-73
2022/08/19 08:55:13;;;;;;;9.02;5.60;;;;;;;32.62;35.52;99677.69;5112735;28;20422;-73
2022/08/19 08:57:54;;;;;;;8.73;6.00;;;;;;;32.68;35.65;99665.66;5094298;28;20096;-74
2022/08/19 09:00:24;;;;;;;8.30;5.32;;;;;;;32.45;35.70;99652.88;5112930;28;20051;-75
2022/08/19 09:02:53;;;;;;;9.75;5.68;;;;;;;32.43;35.28;99639.31;5112815;28;20447;-75
2022/08/19 09:05:23;;;;;;;9.18;6.07;;;;;;;32.45;35.63;99648.19;5094429;28;20128;-75
2022/08/19 09:08:02;;;;;;;10.30;5.45;;;;;;;32.60;34.95;99649.53;5112847;28;20549;-73
2022/08/19 09:10:37;;;;;;;8.85;6.00;;;;;;;32.61;34.96;99645.66;5113026;28;20039;-72
2022/08/19 09:13:19;;;;;;;9.57;5.47;;;;;;;32.20;35.66;99650.47;5112780;28;20491;-76
2022/08/19 09:15:54;;;;;;;6.90;5.60;;;;;;;32.43;35.47;99655.88;5112686;28;20158;-75
2022/08/19 09:18:22;;;;;;;10.73;5.90;;;;;;;32.62;35.18;99652.84;5093928;28;20078;-75
2022/08/19 09:20:50;;;;;;;12.05;5.75;;;;;;;32.73;34.83;99654.72;5093948;28;20044;-75
2022/08/19 09:23:23;;;;;;;7.93;5.88;;;;;;;32.90;34.07;99654.72;5111891;28;20058;-74
2022/08/19 09:25:55;;;;;;;8.00;5.30;;;;;;;33.00;33.24;99647.41;5090378;28;20052;-74
2022/08/19 09:28:25;;;;;;;9.10;5.63;;;;;;;32.97;33.03;99647.09;5092332;28;20098;-78
2022/08/19 09:30:54;;;;;;;9.70;5.63;;;;;;;33.03;32.87;99646.09;5091112;28;20040;-77
2022/08/19 09:33:22;;;;;;;9.07;5.50;;;;;;;32.95;32.75;99647.38;5091735;28;20090;-75
2022/08/19 09:35:50;;;;;;;9.88;5.43;;;;;;;33.03;32.55;99646.94;5090118;28;20511;-75
2022/08/19 09:38:21;;;;;;;10.05;5.30;;;;;;;32.96;33.01;99643.50;5091414;28;20036;-75
2022/08/19 09:40:49;;;;;;;7.40;5.53;;;;;;;32.99;33.17;99640.22;5090259;28;20078;-75
2022/08/19 09:43:19;;;;;;;9.52;5.18;;;;;;;33.22;32.61;99643.88;5090008;28;20080;-74
2022/08/19 09:46:01;;;;;;;8.48;5.47;;;;;;;33.25;32.86;99635.91;5091845;28;20044;-74
2022/08/19 09:48:29;;;;;;;9.68;6.00;;;;;;;33.33;32.81;99628.28;5092221;28;20455;-73
2022/08/19 09:51:04;;;;;;;10.70;5.72;;;;;;;33.51;32.85;99628.00;5091582;28;20044;-79
2022/08/19 09:53:32;;;;;;;8.40;5.43;;;;;;;33.52;32.86;99613.91;5090438;28;20044;-74
2022/08/19 09:56:01;;;;;;;6.22;5.30;;;;;;;33.47;32.69;99611.06;5090439;28;20044;-77
2022/08/19 09:58:33;;;;;;;10.32;5.70;;;;;;;33.46;32.54;99603.88;5091743;28;20494;-75
2022/08/19 10:01:03;;;;;;;8.40;5.50;;;;;;;33.65;32.30;99600.78;5091806;28;20070;-74
2022/08/19 10:03:33;;;;;;;9.45;5.82;;;;;;;33.54;32.06;99611.72;5090417;28;20048;-74
2022/08/19 10:06:03;;;;;;;7.68;5.40;;;;;;;33.68;31.81;99601.09;5085929;28;20053;-76
2022/08/19 10:08:41;;;;;;;11.70;5.68;;;;;;;33.81;32.03;99595.16;5071827;28;20048;-76
2022/08/19 10:11:18;;;;;;;7.63;5.57;;;;;;;33.88;31.97;99595.00;5075285;28;20049;-75
2022/08/19 10:14:06;;;;;;;9.20;5.28;;;;;;;33.58;32.05;99607.31;5075086;28;20377;-75
2022/08/19 10:16:36;;;;;;;8.15;5.00;;;;;;;33.72;31.96;99595.88;5075301;28;20370;-77
2022/08/19 10:19:06;;;;;;;;;;;;;;;33.90;31.53;99603.88;5075498;28;20520;-75
2022/08/19 10:21:35;;;;;;;12.07;5.13;;;;;;;33.86;31.60;99597.13;5075521;28;20265;-74
2022/08/19 10:24:05;;;;;;;8.48;5.03;;;;;;;34.00;30.91;99603.13;5074675;28;20048;-75
2022/08/19 10:26:41;;;;;;;6.80;4.88;;;;;;;34.02;30.90;99595.41;5084427;28;20131;-75
2022/08/19 10:29:12;;;;;;;7.63;5.15;;;;;;;34.09;30.34;99583.03;5091818;28;20079;-73
2022/08/19 10:32:00;;;;;;;7.43;5.35;;;;;;;34.19;30.62;99587.00;5094189;28;20131;-78
2022/08/19 10:34:31;;;;;;;9.48;5.22;;;;;;;34.24;30.46;99578.72;5095146;28;20518;-70
2022/08/19 10:37:01;;;;;;;7.55;5.00;;;;;;;34.29;30.51;99589.84;5110078;28;20056;-73
2022/08/19 10:39:30;;;;;;;9.02;5.30;;;;;;;34.29;30.88;99595.38;5096741;28;20082;-73
2022/08/19 10:42:10;;;;;;;8.35;5.40;;;;;;;34.20;30.77;99588.66;5115234;28;20128;-73
2022/08/19 10:44:40;;;;;;;9.52;5.47;;;;;;;34.26;30.70;99590.34;5096759;28;20492;-75
2022/08/19 10:47:08;;;;;;;9.98;5.60;;;;;;;34.50;30.59;99586.16;5115593;28;20120;-78
2022/08/19 10:52:40;;;;;;;8.55;5.15;;;;;;;34.57;30.29;99586.78;5115504;28;20039;-78
2022/08/19 10:58:11;;;;;;;7.63;4.65;;;;;;;34.61;29.76;99587.06;5115245;28;20062;-76
2022/08/19 11:00:42;;;;;;;8.20;5.18;;;;;;;34.74;29.44;99581.06;5115369;28;20069;-77
2022/08/19 11:03:10;;;;;;;7.35;5.05;;;;;;;34.78;29.84;99576.69;5096725;28;20449;-76
2022/08/19 11:05:39;;;;;;;8.30;4.82;;;;;;;34.72;29.85;99580.50;5115725;28;20039;-77
2022/08/19 11:08:11;;;;;;;7.65;4.50;;;;;;;34.91;29.58;99583.72;5115205;28;20073;-76
2022/08/19 11:10:58;;;;;;;10.60;5.22;;;;;;;35.01;29.55;99586.53;5115259;28;20043;-75
2022/08/19 11:13:27;;;;;;;9.05;5.20;;;;;;;35.11;28.93;99586.59;5114934;28;20047;-77
2022/08/19 11:16:03;;;;;;;8.57;4.75;;;;;;;34.89;29.25;99585.91;5096842;28;20131;-76
2022/08/19 11:18:37;;;;;;;6.90;4.68;;;;;;;35.01;29.01;99589.31;5115061;28;20050;-78
2022/08/19 11:21:12;;;;;;;10.65;5.13;;;;;;;35.10;29.08;99582.16;5096677;28;20127;-78
2022/08/19 11:23:41;;;;;;;10.32;4.70;;;;;;;35.13;28.61;99584.41;5115400;28;20039;-78
2022/08/19 11:26:09;;;;;;;9.43;4.68;;;;;;;35.13;28.31;99569.69;5114538;28;20054;-78
2022/08/19 11:28:38;;;;;;;7.85;4.63;;;;;;;35.12;28.95;99579.94;5096681;28;20108;-78
2022/08/19 11:31:12;;;;;;;8.90;5.25;;;;;;;35.25;28.21;99582.25;5114251;28;20078;-76
2022/08/19 11:33:41;;;;;;;8.88;5.30;;;;;;;35.28;28.56;99572.53;5105441;28;20487;-76
2022/08/19 11:36:15;;;;;;;9.98;5.43;;;;;;;35.32;28.10;99584.75;5095249;28;20051;-74
2022/08/19 11:38:44;;;;;;;11.05;5.00;;;;;;;35.38;28.03;99580.06;5114100;28;20039;-74
2022/08/19 11:41:12;;;;;;;9.38;4.93;;;;;;;35.41;27.88;99574.00;5114000;28;20430;-74
2022/08/19 11:43:40;;;;;;;7.40;4.78;;;;;;;35.44;27.81;99570.69;5114079;28;20044;-74
2022/08/19 11:46:13;;;;;;;7.68;4.88;;;;;;;35.54;28.03;99574.34;5114218;28;20051;-75
2022/08/19 11:48:42;;;;;;;9.02;5.32;;;;;;;35.50;27.62;99572.38;5096256;28;20051;-73
2022/08/19 11:51:12;;;;;;;8.82;6.30;;;;;;;35.57;26.98;99564.63;5095862;28;20055;-73
2022/08/19 11:53:41;;;;;;;10.07;5.30;;;;;;;35.57;27.85;99553.53;5095780;28;20217;-73
2022/08/19 11:56:10;;;;;;;8.35;5.25;;;;;;;35.62;27.74;99556.34;5113359;28;20063;-74
2022/08/19 11:58:41;;;;;;;9.80;5.13;;;;;;;35.71;27.82;99560.25;5095308;28;20109;-73
2022/08/19 12:01:13;;;;;;;11.25;4.90;;;;;;;35.85;27.01;99564.16;5113263;28;20040;-73
2022/08/19 12:03:41;;;;;;;8.88;4.85;;;;;;;35.70;27.49;99558.56;5092049;28;20091;-73
2022/08/19 12:06:12;;;;;;;8.90;5.13;;;;;;;35.77;27.21;99550.81;5093222;28;20404;-74
2022/08/19 12:08:40;;;;;;;8.35;4.30;;;;;;;35.72;27.28;99547.22;5075360;28;20438;-72